Scf Navigator — WDD6460 — position and weather

sailwx.info

Track history (hours):
 
Tides and Currents Weather Stations Pressure Air Temp Water Temp Dewpoint Dewpoint Depression Visibility Wind Speed Wind Dir Waves Ship Positions

Scf Navigator

Owner: SCF WAXLER MARINE LLC, St Rose, LA. More information available from US FCC via Universal Licensing System and Coast Guard Vessel Documentation Center.

Last reported at 2017-Nov-13 02:00 UTC. Time now 2017-Nov-23 05:50 UTC.
Position N 32°18' W 090°55'.
Warning: this ship's position is 10 days out of date.

Length 34 m; draft 2.7 m.

Type: Ship (hazmat cat A). MMSI: 367173230.

Date/timePositionNaut miles runAvg speedWind from/ knotsBaromVisibWave heightAir tempDewpointWater temp
2017-Nov-13 02:00N 32°18' W 090°55'0 0.5
2017-Nov-13 01:31N 32°18' W 090°55'3 5.9
2017-Nov-13 01:00N 32°21' W 090°57'3 6.8
2017-Nov-13 00:30N 32°23' W 090°60'4 8.0
2017-Nov-13 00:00N 32°26' W 091°03'4 8.7
2017-Nov-12 23:30N 32°29' W 091°07'5 9.1
2017-Nov-12 23:00N 32°33' W 091°06'4 8.8
2017-Nov-12 22:30N 32°37' W 091°09'13 0.4
2017-Nov-11 11:50N 32°50' W 091°09'3 5.0
2017-Nov-11 11:08N 32°47' W 091°09'1 5.1
2017-Nov-11 11:00N 32°46' W 091°09'5 3.2
2017-Nov-11 09:27N 32°44' W 091°04'0 0.8
2017-Nov-11 09:00N 32°44' W 091°03'3 2.9
2017-Nov-11 08:06N 32°41' W 091°04'1 1.9
2017-Nov-11 07:49N 32°41' W 091°05'2 5.4
2017-Nov-11 07:29N 32°40' W 091°07'2 4.2
2017-Nov-11 07:00N 32°39' W 091°09'2 3.8
2017-Nov-11 06:30N 32°37' W 091°09'1 2.6
2017-Nov-11 06:00N 32°36' W 091°09'0 0.0
2017-Nov-11 05:30N 32°36' W 091°09'0 0.0
2017-Nov-11 05:00N 32°36' W 091°09'0 0.0
2017-Nov-11 04:30N 32°36' W 091°09'0 0.0
2017-Nov-11 04:00N 32°36' W 091°09'0 0.1
2017-Nov-11 03:30N 32°36' W 091°09'2 4.5
2017-Nov-11 03:00N 32°35' W 091°07'2 4.3
2017-Nov-11 02:30N 32°33' W 091°06'2 4.4
2017-Nov-11 02:00N 32°31' W 091°07'2 4.7
2017-Nov-11 01:30N 32°28' W 091°07'2 4.8
2017-Nov-11 01:00N 32°27' W 091°04'2 4.7
2017-Nov-11 00:30N 32°26' W 091°02'2 4.7
2017-Nov-11 00:00N 32°24' W 090°60'2 4.5
2017-Nov-10 23:30N 32°22' W 091°00'2 3.9
2017-Nov-10 23:00N 32°21' W 090°59'2 4.8
2017-Nov-10 22:30N 32°21' W 090°56'2 3.8
2017-Nov-10 22:00N 32°20' W 090°54'2 3.5
2017-Nov-10 21:30N 32°18' W 090°55'0 0.0
2017-Nov-10 21:00N 32°18' W 090°55'0 0.0
2017-Nov-10 20:30N 32°18' W 090°55'0 0.0
2017-Nov-10 20:00N 32°18' W 090°55'1 2.1
2017-Nov-10 19:30N 32°17' W 090°56'2 4.0
2017-Nov-10 19:00N 32°16' W 090°58'2 3.8
2017-Nov-10 18:30N 32°14' W 090°59'2 4.2
2017-Nov-10 18:00N 32°12' W 090°59'2 4.2
2017-Nov-10 17:30N 32°10' W 091°00'2 4.3
2017-Nov-10 17:00N 32°08' W 091°00'2 4.1
2017-Nov-10 16:30N 32°07' W 091°02'3 4.2
2017-Nov-10 15:46N 32°08' W 091°06'1 4.2
2017-Nov-10 15:30N 32°07' W 091°06'4 4.6
2017-Nov-10 14:32N 32°03' W 091°03'0 4.5
2017-Nov-10 14:30N 32°03' W 091°03'2 3.5
2017-Nov-10 14:00N 32°02' W 091°04'1 2.4
2017-Nov-10 13:30N 32°01' W 091°05'17 3.4
2017-Nov-10 08:34N 31°51' W 091°21'0 3.6
2017-Nov-10 08:28N 31°50' W 091°21'8 4.1
2017-Nov-10 06:25N 31°42' W 091°24'  
Track history (hours):
 
Tides and Currents Weather Stations Pressure Air Temp Water Temp Dewpoint Dewpoint Depression Visibility Wind Speed Wind Dir Waves Ship Positions

Scf Navigator

Owner: SCF WAXLER MARINE LLC, St Rose, LA. More information available from US FCC via Universal Licensing System and Coast Guard Vessel Documentation Center.

Last reported at 2017-Nov-13 02:00 UTC. Time now 2017-Nov-23 05:50 UTC.
Position N 32°18' W 090°55'.
Warning: this ship's position is 10 days out of date.

Length 34 m; draft 2.7 m.

Type: Ship (hazmat cat A). MMSI: 367173230.

Date/timePositionNaut miles runAvg speedWind from/ knotsBaromVisibWave heightAir tempDewpointWater temp
2017-Nov-13 02:00N 32°18' W 090°55'0 0.5
2017-Nov-13 01:31N 32°18' W 090°55'3 5.9
2017-Nov-13 01:00N 32°21' W 090°57'3 6.8
2017-Nov-13 00:30N 32°23' W 090°60'4 8.0
2017-Nov-13 00:00N 32°26' W 091°03'4 8.7
2017-Nov-12 23:30N 32°29' W 091°07'5 9.1
2017-Nov-12 23:00N 32°33' W 091°06'4 8.8
2017-Nov-12 22:30N 32°37' W 091°09'13 0.4
2017-Nov-11 11:50N 32°50' W 091°09'3 5.0
2017-Nov-11 11:08N 32°47' W 091°09'1 5.1
2017-Nov-11 11:00N 32°46' W 091°09'5 3.2
2017-Nov-11 09:27N 32°44' W 091°04'0 0.8
2017-Nov-11 09:00N 32°44' W 091°03'3 2.9
2017-Nov-11 08:06N 32°41' W 091°04'1 1.9
2017-Nov-11 07:49N 32°41' W 091°05'2 5.4
2017-Nov-11 07:29N 32°40' W 091°07'2 4.2
2017-Nov-11 07:00N 32°39' W 091°09'2 3.8
2017-Nov-11 06:30N 32°37' W 091°09'1 2.6
2017-Nov-11 06:00N 32°36' W 091°09'0 0.0
2017-Nov-11 05:30N 32°36' W 091°09'0 0.0
2017-Nov-11 05:00N 32°36' W 091°09'0 0.0
2017-Nov-11 04:30N 32°36' W 091°09'0 0.0
2017-Nov-11 04:00N 32°36' W 091°09'0 0.1
2017-Nov-11 03:30N 32°36' W 091°09'2 4.5
2017-Nov-11 03:00N 32°35' W 091°07'2 4.3
2017-Nov-11 02:30N 32°33' W 091°06'2 4.4
2017-Nov-11 02:00N 32°31' W 091°07'2 4.7
2017-Nov-11 01:30N 32°28' W 091°07'2 4.8
2017-Nov-11 01:00N 32°27' W 091°04'2 4.7
2017-Nov-11 00:30N 32°26' W 091°02'2 4.7
2017-Nov-11 00:00N 32°24' W 090°60'2 4.5
2017-Nov-10 23:30N 32°22' W 091°00'2 3.9
2017-Nov-10 23:00N 32°21' W 090°59'2 4.8
2017-Nov-10 22:30N 32°21' W 090°56'2 3.8
2017-Nov-10 22:00N 32°20' W 090°54'2 3.5
2017-Nov-10 21:30N 32°18' W 090°55'0 0.0
2017-Nov-10 21:00N 32°18' W 090°55'0 0.0
2017-Nov-10 20:30N 32°18' W 090°55'0 0.0
2017-Nov-10 20:00N 32°18' W 090°55'1 2.1
2017-Nov-10 19:30N 32°17' W 090°56'2 4.0
2017-Nov-10 19:00N 32°16' W 090°58'2 3.8
2017-Nov-10 18:30N 32°14' W 090°59'2 4.2
2017-Nov-10 18:00N 32°12' W 090°59'2 4.2
2017-Nov-10 17:30N 32°10' W 091°00'2 4.3
2017-Nov-10 17:00N 32°08' W 091°00'2 4.1
2017-Nov-10 16:30N 32°07' W 091°02'3 4.2
2017-Nov-10 15:46N 32°08' W 091°06'1 4.2
2017-Nov-10 15:30N 32°07' W 091°06'4 4.6
2017-Nov-10 14:32N 32°03' W 091°03'0 4.5
2017-Nov-10 14:30N 32°03' W 091°03'2 3.5
2017-Nov-10 14:00N 32°02' W 091°04'1 2.4
2017-Nov-10 13:30N 32°01' W 091°05'17 3.4
2017-Nov-10 08:34N 31°51' W 091°21'0 3.6
2017-Nov-10 08:28N 31°50' W 091°21'8 4.1
2017-Nov-10 06:25N 31°42' W 091°24'  

Dump ship's entire track history